createdAt,value
2018-06-16T00:00:25.526Z,95445.00
2018-06-16T00:02:55.815Z,95450.00
2018-06-16T00:05:24.993Z,95460.00
2018-06-16T00:07:54.138Z,95453.00
2018-06-16T00:10:23.269Z,95461.00
2018-06-16T00:12:52.366Z,95449.00
2018-06-16T00:15:21.562Z,95448.00
2018-06-16T00:17:50.782Z,95442.00
2018-06-16T00:20:20.074Z,95447.00
2018-06-16T00:22:49.186Z,95442.00
2018-06-16T00:25:18.353Z,95439.00
2018-06-16T00:27:47.551Z,95440.00
2018-06-16T00:30:16.741Z,95449.00
2018-06-16T00:32:45.846Z,95440.00
2018-06-16T00:35:14.998Z,95434.00
2018-06-16T00:37:44.186Z,95434.00
2018-06-16T00:40:13.378Z,95434.00
2018-06-16T00:42:42.566Z,95434.00
2018-06-16T00:45:11.675Z,95436.00
2018-06-16T00:47:40.774Z,95424.00
2018-06-16T00:50:09.986Z,95430.00
2018-06-16T00:52:39.207Z,95432.00
2018-06-16T00:55:08.506Z,95440.00
2018-06-16T00:57:46.145Z,95431.00
2018-06-16T01:00:16.146Z,95435.00
2018-06-16T01:02:45.420Z,95432.00
2018-06-16T01:05:14.568Z,95423.00
2018-06-16T01:07:43.441Z,95433.00
2018-06-16T01:10:13.106Z,95423.00
2018-06-16T01:12:42.984Z,95425.00
2018-06-16T01:15:12.221Z,95424.00
2018-06-16T01:17:43.187Z,95416.00
2018-06-16T01:20:12.295Z,95421.00
2018-06-16T01:22:41.495Z,95409.00
2018-06-16T01:25:10.660Z,95412.00
2018-06-16T01:27:39.767Z,95413.00
2018-06-16T01:30:08.978Z,95409.00
2018-06-16T01:32:38.206Z,95409.00
2018-06-16T01:35:07.390Z,95412.00
2018-06-16T01:37:36.558Z,95410.00
2018-06-16T01:40:05.743Z,95404.00
2018-06-16T01:42:34.938Z,95398.00
2018-06-16T01:45:04.195Z,95399.00
2018-06-16T01:47:33.443Z,95404.00
2018-06-16T01:50:02.487Z,95389.00
2018-06-16T01:52:31.618Z,95388.00
2018-06-16T01:55:00.791Z,95393.00
2018-06-16T01:57:29.983Z,95398.00
2018-06-16T01:59:59.204Z,95400.00
2018-06-16T02:02:28.371Z,95393.00
2018-06-16T02:04:57.614Z,95391.00
2018-06-16T02:07:26.735Z,95392.00
2018-06-16T02:09:56.080Z,95392.00
2018-06-16T02:12:25.233Z,95376.00
2018-06-16T02:14:54.441Z,95379.00
2018-06-16T02:17:23.353Z,95386.00
2018-06-16T02:19:52.546Z,95385.00
2018-06-16T02:22:21.690Z,95381.00
2018-06-16T02:24:50.961Z,95392.00
2018-06-16T02:27:20.158Z,95379.00
2018-06-16T02:29:49.266Z,95380.00
2018-06-16T02:32:18.742Z,95372.00
2018-06-16T02:34:47.983Z,95368.00
2018-06-16T02:37:17.048Z,95379.00
2018-06-16T02:39:46.200Z,95376.00
2018-06-16T02:42:15.135Z,95384.00
2018-06-16T02:44:44.281Z,95375.00
2018-06-16T02:47:13.392Z,95379.00
2018-06-16T02:49:42.289Z,95375.00
2018-06-16T02:52:11.445Z,95384.00
2018-06-16T02:54:40.706Z,95382.00
2018-06-16T02:57:09.922Z,95378.00
2018-06-16T02:59:39.089Z,95385.00
2018-06-16T03:02:08.358Z,95384.00
2018-06-16T03:04:37.305Z,95392.00
2018-06-16T03:07:06.434Z,95389.00
2018-06-16T03:09:35.639Z,95383.00
2018-06-16T03:12:04.750Z,95380.00
2018-06-16T03:14:33.901Z,95367.00
2018-06-16T03:17:03.046Z,95380.00
2018-06-16T03:19:32.189Z,95377.00
2018-06-16T03:22:01.510Z,95363.00
2018-06-16T03:24:30.734Z,95373.00
2018-06-16T03:26:59.578Z,95375.00
2018-06-16T03:29:28.699Z,95377.00
2018-06-16T03:31:57.854Z,95370.00
2018-06-16T03:34:26.950Z,95377.00
2018-06-16T03:36:56.113Z,95376.00
2018-06-16T03:39:25.279Z,95379.00
2018-06-16T03:41:54.406Z,95382.00
2018-06-16T03:44:23.636Z,95385.00
2018-06-16T03:46:52.701Z,95377.00
2018-06-16T03:49:21.913Z,95383.00
2018-06-16T03:51:50.964Z,95382.00
2018-06-16T03:54:20.182Z,95378.00
2018-06-16T03:56:49.334Z,95401.00
2018-06-16T03:59:18.531Z,95381.00
2018-06-16T04:01:47.694Z,95391.00
2018-06-16T04:04:16.952Z,95393.00
2018-06-16T04:06:46.111Z,95394.00
2018-06-16T04:09:15.270Z,95393.00
2018-06-16T04:11:44.426Z,95385.00
2018-06-16T04:14:13.544Z,95400.00
2018-06-16T04:16:42.709Z,95394.00
2018-06-16T04:19:11.995Z,95392.00
2018-06-16T04:21:41.053Z,95386.00
2018-06-16T04:24:10.227Z,95387.00
2018-06-16T04:26:39.234Z,95389.00
2018-06-16T04:29:08.386Z,95389.00
2018-06-16T04:31:37.637Z,95393.00
2018-06-16T04:34:06.795Z,95395.00
2018-06-16T04:36:35.944Z,95395.00
2018-06-16T04:39:08.083Z,95397.00
2018-06-16T04:41:36.933Z,95395.00
2018-06-16T04:44:06.186Z,95396.00
2018-06-16T04:46:35.382Z,95401.00
2018-06-16T04:49:04.615Z,95404.00
2018-06-16T04:51:35.144Z,95403.00
2018-06-16T04:54:04.273Z,95402.00
2018-06-16T04:56:33.282Z,95394.00
2018-06-16T04:59:02.738Z,95397.00
2018-06-16T05:01:31.831Z,95398.00
2018-06-16T05:04:01.023Z,95393.00
2018-06-16T05:06:30.126Z,95396.00
2018-06-16T05:08:59.246Z,95400.00
2018-06-16T05:11:28.498Z,95397.00
2018-06-16T05:13:57.651Z,95401.00
2018-06-16T05:16:26.813Z,95402.00
2018-06-16T05:18:56.046Z,95402.00
2018-06-16T05:21:25.234Z,95397.00
2018-06-16T05:23:54.603Z,95399.00
2018-06-16T05:26:23.709Z,95385.00
2018-06-16T05:28:52.926Z,95389.00
2018-06-16T05:31:22.046Z,95389.00
2018-06-16T05:33:51.526Z,95397.00
2018-06-16T05:36:20.954Z,95390.00
2018-06-16T05:38:50.343Z,95391.00
2018-06-16T05:41:19.249Z,95382.00
2018-06-16T05:43:48.387Z,95392.00
2018-06-16T05:46:17.558Z,95390.00
2018-06-16T05:48:46.644Z,95389.00
2018-06-16T05:51:15.864Z,95386.00
2018-06-16T05:53:45.020Z,95386.00
2018-06-16T05:56:14.191Z,95386.00
2018-06-16T05:58:43.313Z,95390.00
2018-06-16T06:01:12.558Z,95392.00
2018-06-16T06:03:41.709Z,95401.00
2018-06-16T06:06:10.926Z,95390.00
2018-06-16T06:08:40.027Z,95393.00
2018-06-16T06:11:09.171Z,95390.00
2018-06-16T06:13:38.334Z,95398.00
2018-06-16T06:16:07.406Z,95400.00
2018-06-16T06:18:36.570Z,95396.00
2018-06-16T06:21:05.742Z,95396.00
2018-06-16T06:23:34.923Z,95405.00
2018-06-16T06:26:04.102Z,95396.00
2018-06-16T06:28:35.180Z,95396.00
2018-06-16T06:31:04.240Z,95399.00
2018-06-16T06:33:33.298Z,95391.00
2018-06-16T06:36:02.503Z,95390.00
2018-06-16T06:38:31.310Z,95393.00
2018-06-16T06:41:00.391Z,95399.00
2018-06-16T06:43:29.588Z,95391.00
2018-06-16T06:45:58.874Z,95399.00
2018-06-16T06:48:27.953Z,95399.00
2018-06-16T06:50:57.042Z,95397.00
2018-06-16T06:53:26.246Z,95406.00
2018-06-16T06:55:55.418Z,95404.00
2018-06-16T06:58:24.472Z,95397.00
2018-06-16T07:00:53.640Z,95403.00
2018-06-16T07:03:22.813Z,95399.00
2018-06-16T07:05:51.934Z,95406.00
2018-06-16T07:08:21.310Z,95399.00
2018-06-16T07:10:50.503Z,95394.00
2018-06-16T07:13:19.626Z,95393.00
2018-06-16T07:15:48.843Z,95392.00
2018-06-16T07:18:18.020Z,95395.00
2018-06-16T07:20:47.173Z,95399.00
2018-06-16T07:23:16.309Z,95396.00
2018-06-16T07:25:45.450Z,95398.00
2018-06-16T07:28:14.610Z,95394.00
2018-06-16T07:30:43.802Z,95395.00
2018-06-16T07:33:12.987Z,95401.00
2018-06-16T07:35:42.261Z,95404.00
2018-06-16T07:38:11.401Z,95406.00
2018-06-16T07:40:40.579Z,95405.00
2018-06-16T07:43:10.963Z,95411.00
2018-06-16T07:45:40.110Z,95404.00
2018-06-16T07:48:09.174Z,95402.00
2018-06-16T07:50:38.329Z,95400.00
2018-06-16T07:53:07.518Z,95393.00
2018-06-16T07:55:36.666Z,95400.00
2018-06-16T07:58:05.790Z,95400.00
2018-06-16T08:00:34.939Z,95398.00
2018-06-16T08:03:04.114Z,95399.00
2018-06-16T08:05:33.258Z,95399.00
2018-06-16T08:08:02.413Z,95404.00
2018-06-16T08:10:31.674Z,95392.00
2018-06-16T08:13:00.872Z,95396.00
2018-06-16T08:15:30.030Z,95400.00
2018-06-16T08:17:59.279Z,95396.00
2018-06-16T08:20:28.384Z,95393.00
2018-06-16T08:22:57.555Z,95396.00
2018-06-16T08:25:26.702Z,95400.00
2018-06-16T08:27:55.809Z,95391.00
2018-06-16T08:30:24.960Z,95392.00
2018-06-16T08:32:54.162Z,95395.00
2018-06-16T08:35:23.286Z,95397.00
2018-06-16T08:37:52.396Z,95395.00
2018-06-16T08:40:21.522Z,95397.00
2018-06-16T08:42:50.769Z,95395.00
2018-06-16T08:45:19.898Z,95389.00
2018-06-16T08:47:49.047Z,95385.00
2018-06-16T08:50:18.253Z,95385.00
2018-06-16T08:52:47.481Z,95397.00
2018-06-16T08:55:16.746Z,95387.00
2018-06-16T08:57:45.973Z,95386.00
2018-06-16T09:00:15.126Z,95395.00
2018-06-16T09:02:44.234Z,95383.00
2018-06-16T09:05:13.426Z,95386.00
2018-06-16T09:07:42.641Z,95387.00
2018-06-16T09:10:11.761Z,95392.00
2018-06-16T09:12:40.931Z,95393.00
2018-06-16T09:15:09.986Z,95392.00
2018-06-16T09:17:39.069Z,95384.00
2018-06-16T09:20:08.274Z,95390.00
2018-06-16T09:22:37.483Z,95392.00
2018-06-16T09:25:06.623Z,95396.00
2018-06-16T09:27:35.741Z,95382.00
2018-06-16T09:30:04.897Z,95389.00
2018-06-16T09:32:34.174Z,95387.00
2018-06-16T09:35:03.329Z,95391.00
2018-06-16T09:37:32.632Z,95389.00
2018-06-16T09:40:01.761Z,95396.00
2018-06-16T09:42:30.842Z,95389.00
2018-06-16T09:44:59.917Z,95381.00
2018-06-16T09:47:29.065Z,95385.00
2018-06-16T09:49:58.144Z,95375.00
2018-06-16T09:52:27.253Z,95387.00
2018-06-16T09:54:56.394Z,95385.00
2018-06-16T09:57:25.558Z,95387.00
2018-06-16T09:59:54.763Z,95373.00
2018-06-16T10:02:23.886Z,95382.00
2018-06-16T10:04:53.010Z,95383.00
2018-06-16T10:07:22.250Z,95376.00
2018-06-16T10:09:51.453Z,95375.00
2018-06-16T10:12:20.562Z,95381.00
2018-06-16T10:14:49.826Z,95375.00
2018-06-16T10:17:19.023Z,95382.00
2018-06-16T10:19:48.178Z,95379.00
2018-06-16T10:22:17.312Z,95371.00
2018-06-16T10:24:46.463Z,95373.00
2018-06-16T10:27:15.658Z,95379.00
2018-06-16T10:29:44.825Z,95380.00
2018-06-16T10:32:14.530Z,95371.00
2018-06-16T10:34:43.714Z,95368.00
2018-06-16T10:37:12.578Z,95369.00
2018-06-16T10:39:41.628Z,95372.00
2018-06-16T10:42:10.693Z,95378.00
2018-06-16T10:44:39.906Z,95370.00
2018-06-16T10:47:09.567Z,95374.00
2018-06-16T10:49:38.866Z,95371.00
2018-06-16T10:52:08.022Z,95369.00
2018-06-16T10:54:37.119Z,95367.00
2018-06-16T10:57:06.227Z,95366.00
2018-06-16T10:59:35.458Z,95362.00
2018-06-16T11:02:04.562Z,95358.00
2018-06-16T11:04:33.926Z,95355.00
2018-06-16T11:07:03.195Z,95351.00
2018-06-16T11:09:32.341Z,95348.00
2018-06-16T11:12:01.490Z,95347.00
2018-06-16T11:14:30.629Z,95346.00
2018-06-16T11:16:59.859Z,95337.00
2018-06-16T11:19:28.951Z,95341.00
2018-06-16T11:21:58.165Z,95344.00
2018-06-16T11:24:27.263Z,95333.00
2018-06-16T11:26:56.358Z,95336.00
2018-06-16T11:29:25.516Z,95327.00
2018-06-16T11:31:54.677Z,95331.00
2018-06-16T11:34:23.775Z,95333.00
2018-06-16T11:36:52.815Z,95325.00
2018-06-16T11:39:21.913Z,95322.00
2018-06-16T11:41:50.813Z,95326.00
2018-06-16T11:44:20.013Z,95320.00
2018-06-16T11:46:49.101Z,95324.00
2018-06-16T11:49:18.310Z,95319.00
2018-06-16T11:51:47.529Z,95308.00
2018-06-16T11:54:16.678Z,95311.00
2018-06-16T11:56:45.813Z,95310.00
2018-06-16T11:59:16.280Z,95317.00
2018-06-16T12:01:45.126Z,95303.00
2018-06-16T12:04:14.277Z,95304.00
2018-06-16T12:06:43.457Z,95303.00
2018-06-16T12:09:13.322Z,95294.00
2018-06-16T12:11:42.450Z,95303.00
2018-06-16T12:14:11.569Z,95293.00
2018-06-16T12:16:40.687Z,95293.00
2018-06-16T12:19:09.902Z,95294.00
2018-06-16T12:21:39.110Z,95293.00
2018-06-16T12:24:08.270Z,95293.00
2018-06-16T12:26:37.453Z,95295.00
2018-06-16T12:29:06.549Z,95289.00
2018-06-16T12:31:37.335Z,95295.00
2018-06-16T12:34:06.538Z,95293.00
2018-06-16T12:36:35.806Z,95294.00
2018-06-16T12:39:08.102Z,95294.00
2018-06-16T12:41:37.277Z,95295.00
2018-06-16T12:44:06.677Z,95298.00
2018-06-16T12:46:35.774Z,95294.00
2018-06-16T12:49:04.965Z,95294.00
2018-06-16T12:51:34.250Z,95299.00
2018-06-16T12:54:03.462Z,95298.00
2018-06-16T12:56:32.746Z,95290.00
2018-06-16T12:59:01.881Z,95296.00
2018-06-16T13:01:31.145Z,95293.00
2018-06-16T13:04:00.354Z,95292.00
2018-06-16T13:06:29.482Z,95289.00
2018-06-16T13:08:58.670Z,95283.00
2018-06-16T13:11:27.920Z,95290.00
2018-06-16T13:13:57.116Z,95284.00
2018-06-16T13:16:26.266Z,95288.00
2018-06-16T13:18:55.357Z,95290.00
2018-06-16T13:21:24.498Z,95286.00
2018-06-16T13:23:53.685Z,95285.00
2018-06-16T13:26:22.869Z,95280.00
2018-06-16T13:28:51.991Z,95279.00
2018-06-16T13:31:21.134Z,95275.00
2018-06-16T13:33:50.278Z,95279.00
2018-06-16T13:36:19.449Z,95278.00
2018-06-16T13:38:48.567Z,95279.00
2018-06-16T13:41:17.746Z,95273.00
2018-06-16T13:43:46.861Z,95265.00
2018-06-16T13:46:17.997Z,95268.00
2018-06-16T13:48:47.158Z,95266.00
2018-06-16T13:51:16.329Z,95269.00
2018-06-16T13:53:45.418Z,95266.00
2018-06-16T13:56:14.678Z,95265.00
2018-06-16T13:58:43.854Z,95264.00
2018-06-16T14:01:13.023Z,95263.00
2018-06-16T14:03:42.262Z,95262.00
2018-06-16T14:06:11.341Z,95261.00
2018-06-16T14:08:40.479Z,95260.00
2018-06-16T14:11:09.570Z,95261.00
2018-06-16T14:13:38.687Z,95257.00
2018-06-16T14:16:07.714Z,95255.00
2018-06-16T14:18:36.537Z,95253.00
2018-06-16T14:21:05.722Z,95251.00
2018-06-16T14:23:34.942Z,95248.00
2018-06-16T14:26:04.172Z,95249.00
2018-06-16T14:28:33.223Z,95254.00
2018-06-16T14:31:02.415Z,95252.00
2018-06-16T14:33:31.542Z,95255.00
2018-06-16T14:36:00.744Z,95248.00
2018-06-16T14:38:29.926Z,95249.00
2018-06-16T14:40:59.274Z,95245.00
2018-06-16T14:43:28.473Z,95251.00
2018-06-16T14:45:57.604Z,95247.00
2018-06-16T14:48:26.781Z,95248.00
2018-06-16T14:50:55.831Z,95245.00
2018-06-16T14:53:24.967Z,95242.00
2018-06-16T14:55:54.066Z,95236.00
2018-06-16T14:58:26.273Z,95239.00
2018-06-16T15:00:56.427Z,95239.00
2018-06-16T15:03:25.836Z,95247.00
2018-06-16T15:05:55.025Z,95236.00
2018-06-16T15:08:24.234Z,95246.00
2018-06-16T15:10:53.642Z,95239.00
2018-06-16T15:13:23.350Z,95234.00
2018-06-16T15:15:52.556Z,95245.00
2018-06-16T15:18:21.564Z,95246.00
2018-06-16T15:20:50.761Z,95242.00
2018-06-16T15:23:19.906Z,95241.00
2018-06-16T15:25:49.098Z,95241.00
2018-06-16T15:28:18.327Z,95238.00
2018-06-16T15:30:47.947Z,95239.00
2018-06-16T15:33:18.504Z,95238.00
2018-06-16T15:35:47.714Z,95238.00
2018-06-16T15:38:16.813Z,95231.00
2018-06-16T15:40:45.902Z,95241.00
2018-06-16T15:43:15.011Z,95233.00
2018-06-16T15:45:44.118Z,95240.00
2018-06-16T15:48:13.362Z,95234.00
2018-06-16T15:50:42.495Z,95230.00
2018-06-16T15:53:11.716Z,95233.00
2018-06-16T15:55:40.856Z,95233.00
2018-06-16T15:58:09.929Z,95228.00
2018-06-16T16:00:39.071Z,95227.00
2018-06-16T16:03:08.291Z,95233.00
2018-06-16T16:05:37.454Z,95222.00
2018-06-16T16:08:06.817Z,95217.00
2018-06-16T16:10:35.705Z,95221.00
2018-06-16T16:13:04.857Z,95216.00
2018-06-16T16:15:33.950Z,95219.00
2018-06-16T16:18:03.078Z,95215.00
2018-06-16T16:20:32.202Z,95222.00
2018-06-16T16:23:01.434Z,95222.00
2018-06-16T16:25:30.570Z,95227.00
2018-06-16T16:27:59.710Z,95221.00
2018-06-16T16:30:28.870Z,95216.00
2018-06-16T16:32:58.039Z,95223.00
2018-06-16T16:35:27.129Z,95224.00
2018-06-16T16:37:56.230Z,95224.00
2018-06-16T16:40:25.826Z,95217.00
2018-06-16T16:42:54.935Z,95217.00
2018-06-16T16:45:23.945Z,95223.00
2018-06-16T16:47:58.700Z,95233.00
2018-06-16T16:50:27.819Z,95231.00
2018-06-16T16:52:56.693Z,95232.00
2018-06-16T16:55:25.854Z,95228.00
2018-06-16T16:57:55.073Z,95231.00
2018-06-16T17:00:24.289Z,95233.00
2018-06-16T17:02:53.389Z,95230.00
2018-06-16T17:05:22.606Z,95237.00
2018-06-16T17:07:51.755Z,95234.00
2018-06-16T17:10:21.200Z,95238.00
2018-06-16T17:12:50.303Z,95232.00
2018-06-16T17:15:19.434Z,95234.00
2018-06-16T17:17:48.643Z,95228.00
2018-06-16T17:20:18.634Z,95225.00
2018-06-16T17:22:47.736Z,95230.00
2018-06-16T17:25:21.961Z,95236.00
2018-06-16T17:27:51.164Z,95232.00
2018-06-16T17:30:20.302Z,95241.00
2018-06-16T17:32:49.533Z,95235.00
2018-06-16T17:35:18.677Z,95235.00
2018-06-16T17:37:47.817Z,95238.00
2018-06-16T17:40:16.970Z,95237.00
2018-06-16T17:42:46.142Z,95243.00
2018-06-16T17:45:15.285Z,95239.00
2018-06-16T17:47:44.380Z,95240.00
2018-06-16T17:50:13.539Z,95246.00
2018-06-16T17:52:42.662Z,95247.00
2018-06-16T17:55:11.767Z,95245.00
2018-06-16T17:57:40.870Z,95247.00
2018-06-16T18:00:09.912Z,95249.00
2018-06-16T18:02:39.014Z,95255.00
2018-06-16T18:05:08.111Z,95256.00
2018-06-16T18:07:37.511Z,95253.00
2018-06-16T18:10:06.779Z,95256.00
2018-06-16T18:12:35.917Z,95256.00
2018-06-16T18:15:05.203Z,95251.00
2018-06-16T18:17:34.308Z,95263.00
2018-06-16T18:20:03.450Z,95248.00
2018-06-16T18:22:33.086Z,95260.00
2018-06-16T18:25:02.235Z,95265.00
2018-06-16T18:27:31.410Z,95265.00
2018-06-16T18:30:00.655Z,95259.00
2018-06-16T18:32:29.794Z,95267.00
2018-06-16T18:34:59.044Z,95265.00
2018-06-16T18:37:28.215Z,95268.00
2018-06-16T18:39:57.373Z,95270.00
2018-06-16T18:42:26.562Z,95269.00
2018-06-16T18:44:55.714Z,95270.00
2018-06-16T18:47:24.882Z,95274.00
2018-06-16T18:49:54.150Z,95274.00
2018-06-16T18:52:23.146Z,95282.00
2018-06-16T18:54:52.349Z,95279.00
2018-06-16T18:57:21.549Z,95281.00
2018-06-16T18:59:50.765Z,95280.00
2018-06-16T19:02:20.078Z,95284.00
2018-06-16T19:04:49.302Z,95287.00
2018-06-16T19:07:20.653Z,95283.00
2018-06-16T19:09:49.778Z,95289.00
2018-06-16T19:12:19.093Z,95297.00
2018-06-16T19:14:48.270Z,95299.00
2018-06-16T19:17:17.357Z,95300.00
2018-06-16T19:19:46.569Z,95294.00
2018-06-16T19:22:15.670Z,95294.00
2018-06-16T19:24:44.830Z,95300.00
2018-06-16T19:27:13.930Z,95304.00
2018-06-16T19:29:43.034Z,95301.00
2018-06-16T19:32:12.142Z,95311.00
2018-06-16T19:34:41.292Z,95307.00
2018-06-16T19:37:10.164Z,95314.00
2018-06-16T19:39:39.293Z,95314.00
2018-06-16T19:42:08.453Z,95319.00
2018-06-16T19:44:37.749Z,95317.00
2018-06-16T19:47:06.906Z,95319.00
2018-06-16T19:49:36.019Z,95329.00
2018-06-16T19:52:05.115Z,95328.00
2018-06-16T19:54:34.338Z,95321.00
2018-06-16T19:57:03.410Z,95332.00
2018-06-16T19:59:32.561Z,95328.00
2018-06-16T20:02:01.726Z,95335.00
2018-06-16T20:04:30.802Z,95332.00
2018-06-16T20:07:00.058Z,95333.00
2018-06-16T20:09:29.242Z,95338.00
2018-06-16T20:11:58.349Z,95338.00
2018-06-16T20:14:27.463Z,95337.00
2018-06-16T20:16:56.667Z,95339.00
2018-06-16T20:19:25.869Z,95338.00
2018-06-16T20:21:56.066Z,95338.00
2018-06-16T20:24:25.234Z,95344.00
2018-06-16T20:26:56.477Z,95343.00
2018-06-16T20:29:25.931Z,95342.00
2018-06-16T20:32:05.814Z,95336.00
2018-06-16T20:34:35.054Z,95350.00
2018-06-16T20:37:04.835Z,95349.00
2018-06-16T20:39:34.110Z,95357.00
2018-06-16T20:42:03.206Z,95352.00
2018-06-16T20:44:32.298Z,95354.00
2018-06-16T20:47:01.362Z,95351.00
2018-06-16T20:49:30.462Z,95359.00
2018-06-16T20:51:59.658Z,95358.00
2018-06-16T20:54:28.727Z,95358.00
2018-06-16T20:56:57.950Z,95360.00
2018-06-16T20:59:27.056Z,95360.00
2018-06-16T21:01:56.237Z,95351.00
2018-06-16T21:04:25.394Z,95356.00
2018-06-16T21:06:54.592Z,95366.00
2018-06-16T21:09:23.697Z,95367.00
2018-06-16T21:11:52.597Z,95364.00
2018-06-16T21:14:21.843Z,95367.00
2018-06-16T21:16:50.875Z,95371.00
2018-06-16T21:19:19.862Z,95367.00
2018-06-16T21:21:49.050Z,95374.00
2018-06-16T21:24:17.983Z,95374.00
2018-06-16T21:26:47.169Z,95378.00
2018-06-16T21:29:16.287Z,95370.00
2018-06-16T21:31:45.410Z,95380.00
2018-06-16T21:34:14.493Z,95372.00
2018-06-16T21:36:43.645Z,95371.00
2018-06-16T21:39:12.897Z,95373.00
2018-06-16T21:41:42.018Z,95367.00
2018-06-16T21:44:11.171Z,95367.00
2018-06-16T21:46:40.382Z,95375.00
2018-06-16T21:49:09.502Z,95376.00
2018-06-16T21:51:38.717Z,95371.00
2018-06-16T21:54:07.942Z,95374.00
2018-06-16T21:56:37.155Z,95367.00
2018-06-16T21:59:06.307Z,95377.00
2018-06-16T22:01:36.558Z,95376.00
2018-06-16T22:04:06.534Z,95372.00
2018-06-16T22:06:35.382Z,95372.00
2018-06-16T22:09:07.954Z,95372.00
2018-06-16T22:11:37.121Z,95376.00
2018-06-16T22:14:06.327Z,95378.00
2018-06-16T22:16:35.456Z,95380.00
2018-06-16T22:19:04.740Z,95380.00
2018-06-16T22:21:33.854Z,95380.00
2018-06-16T22:24:02.977Z,95376.00
2018-06-16T22:26:32.082Z,95387.00
2018-06-16T22:29:01.230Z,95385.00
2018-06-16T22:31:30.420Z,95384.00
2018-06-16T22:33:59.511Z,95387.00
2018-06-16T22:36:28.699Z,95387.00
2018-06-16T22:38:57.874Z,95385.00
2018-06-16T22:41:27.030Z,95391.00
2018-06-16T22:43:56.262Z,95378.00
2018-06-16T22:46:25.529Z,95390.00
2018-06-16T22:48:54.658Z,95387.00
2018-06-16T22:51:23.756Z,95388.00
2018-06-16T22:53:52.886Z,95393.00
2018-06-16T22:56:22.077Z,95390.00
2018-06-16T22:58:51.243Z,95384.00
2018-06-16T23:01:20.430Z,95389.00
2018-06-16T23:03:49.257Z,95382.00
2018-06-16T23:06:18.401Z,95378.00
2018-06-16T23:08:47.625Z,95387.00
2018-06-16T23:11:16.998Z,95381.00
2018-06-16T23:13:46.095Z,95384.00
2018-06-16T23:16:15.334Z,95381.00
2018-06-16T23:18:44.541Z,95380.00
2018-06-16T23:21:13.641Z,95371.00
2018-06-16T23:23:42.775Z,95380.00
2018-06-16T23:26:11.990Z,95378.00
2018-06-16T23:28:41.142Z,95374.00
2018-06-16T23:31:10.280Z,95377.00
2018-06-16T23:33:39.594Z,95380.00
2018-06-16T23:36:08.810Z,95378.00
2018-06-16T23:38:38.022Z,95388.00
2018-06-16T23:41:07.070Z,95380.00
2018-06-16T23:43:36.363Z,95392.00
2018-06-16T23:46:05.720Z,95381.00
2018-06-16T23:48:34.905Z,95384.00
2018-06-16T23:51:04.089Z,95385.00
2018-06-16T23:53:33.218Z,95388.00
2018-06-16T23:56:02.302Z,95386.00
2018-06-16T23:58:31.402Z,95385.00
